Time;durP1;ratioP1;P1;durP2;ratioP2;P2;SDS_P1;SDS_P2;PMS_P1;PMS_P2;Temp;Humidity;BMP_temperature;BMP_pressure;BME280_temperature;BME280_humidity;BME280_pressure;Samples;Min_cycle;Max_cycle;Signal;HPM_P1;HPM_P2
2021/08/06 00:00:11;;;;;;;3.47;0.40;;;;;;;20.07;74.77;98607.20;1735260;81;21066;-58
2021/08/06 00:02:41;;;;;;;0.95;0.50;;;;;;;20.05;75.04;98605.63;1733899;81;21022;-57
2021/08/06 00:05:10;;;;;;;2.67;0.40;;;;;;;20.03;75.23;98607.16;1737000;81;21025;-56
2021/08/06 00:07:36;;;;;;;1.40;0.60;;;;;;;20.03;75.42;98603.91;1730390;80;21060;-58
2021/08/06 00:10:04;;;;;;;1.67;0.50;;;;;;;20.03;75.55;98606.64;1694992;83;21037;-57
2021/08/06 00:12:30;;;;;;;0.90;0.60;;;;;;;20.03;75.59;98608.52;1665956;84;21389;-56
2021/08/06 00:14:56;;;;;;;1.47;0.60;;;;;;;20.02;75.70;98595.88;1732840;80;21759;-56
2021/08/06 00:17:23;;;;;;;3.40;0.60;;;;;;;19.99;75.81;98591.59;1732669;80;21100;-57
2021/08/06 00:19:49;;;;;;;1.52;0.60;;;;;;;19.96;76.04;98593.30;1745305;81;21045;-56
2021/08/06 00:22:15;;;;;;;2.15;0.80;;;;;;;19.97;76.36;98588.69;1745308;80;21063;-56
2021/08/06 00:24:42;;;;;;;0.85;0.45;;;;;;;19.97;76.48;98590.05;1747210;80;21421;-57
2021/08/06 00:27:08;;;;;;;1.90;0.53;;;;;;;19.97;76.77;98575.89;1742321;81;21698;-57
2021/08/06 00:29:34;;;;;;;2.52;0.60;;;;;;;19.97;76.75;98570.94;1748649;81;22073;-56
2021/08/06 00:32:50;;;;;;;2.25;0.50;;;;;;;20.02;76.93;98567.20;1792681;77;28092;-55
2021/08/06 00:35:18;;;;;;;1.15;0.60;;;;;;;19.97;76.88;98567.70;1763220;78;21044;-58
2021/08/06 00:37:45;;;;;;;2.52;0.40;;;;;;;19.93;76.94;98562.20;1741675;79;22152;-55
2021/08/06 00:40:12;;;;;;;2.30;0.50;;;;;;;19.90;76.86;98549.39;1761885;78;21396;-56
2021/08/06 00:42:41;;;;;;;4.42;0.50;;;;;;;19.85;76.98;98547.13;1767854;78;21052;-55
2021/08/06 00:45:10;;;;;;;1.60;0.33;;;;;;;19.82;77.18;98545.25;1763764;78;21037;-54
2021/08/06 00:47:37;;;;;;;1.62;0.42;;;;;;;19.79;77.22;98538.73;1763979;78;21087;-55
2021/08/06 00:50:05;;;;;;;1.25;1.05;;;;;;;19.78;77.33;98538.38;1760517;79;21141;-54
2021/08/06 00:52:32;;;;;;;0.70;0.40;;;;;;;19.77;77.40;98542.98;1740125;78;21069;-53
2021/08/06 00:54:59;;;;;;;1.47;0.40;;;;;;;19.72;77.49;98523.52;1765765;78;20989;-55
2021/08/06 00:57:27;;;;;;;0.80;0.45;;;;;;;19.67;77.51;98513.56;1759338;78;21125;-54
2021/08/06 00:59:56;;;;;;;0.60;0.30;;;;;;;19.63;77.67;98503.50;1762395;78;21569;-54
2021/08/06 01:02:35;;;;;;;0.98;0.40;;;;;;;19.59;77.69;98482.98;1765991;79;21948;-53
2021/08/06 01:05:12;;;;;;;2.10;0.33;;;;;;;19.55;77.69;98480.75;1736999;79;21646;-53
2021/08/06 01:08:13;;;;;;;1.80;0.30;;;;;;;19.52;77.71;98487.38;1758838;78;21102;-57
2021/08/06 01:10:58;;;;;;;0.60;0.30;;;;;;;19.49;77.80;98495.88;1772071;78;21041;-54
2021/08/06 01:13:34;;;;;;;1.00;0.40;;;;;;;19.43;77.76;98485.58;1764132;78;21592;-54
2021/08/06 01:16:04;;;;;;;0.70;0.30;;;;;;;19.39;77.90;98488.30;1736252;79;21500;-54
2021/08/06 01:18:32;;;;;;;0.70;0.40;;;;;;;19.37;78.08;98492.19;1732399;80;21565;-56
2021/08/06 01:21:09;;;;;;;0.40;0.30;;;;;;;19.37;78.09;98473.95;1696072;82;21140;-54
2021/08/06 01:23:38;;;;;;;1.35;0.40;;;;;;;19.36;77.91;98468.14;1715973;81;22261;-56
2021/08/06 01:26:11;;;;;;;1.00;0.30;;;;;;;19.36;77.94;98439.50;1706560;81;21107;-52
2021/08/06 01:28:42;;;;;;;2.37;0.40;;;;;;;19.33;77.89;98431.62;1708618;81;21113;-53
2021/08/06 01:31:10;;;;;;;0.57;0.30;;;;;;;19.33;77.73;98423.94;1684202;83;21557;-57
2021/08/06 01:33:38;;;;;;;1.85;0.40;;;;;;;19.31;77.72;98413.19;1744885;79;21101;-56
2021/08/06 01:36:05;;;;;;;3.02;0.40;;;;;;;19.31;77.62;98394.63;1744146;79;21650;-54
2021/08/06 01:38:31;;;;;;;0.42;0.25;;;;;;;19.29;77.57;98379.78;1746700;79;21595;-56
2021/08/06 01:41:38;;;;;;;0.30;0.23;;;;;;;19.29;77.58;98364.77;1745408;80;21118;-56
2021/08/06 01:44:14;;;;;;;0.70;0.37;;;;;;;19.27;77.52;98340.88;1744773;79;21515;-56
2021/08/06 01:46:58;;;;;;;0.90;0.30;;;;;;;19.22;77.63;98333.17;1747317;79;20970;-57
2021/08/06 01:49:30;;;;;;;0.60;0.30;;;;;;;19.20;77.67;98301.64;1749542;80;21140;-55
2021/08/06 01:52:02;;;;;;;1.50;0.40;;;;;;;19.18;77.60;98280.48;1746565;79;21055;-56
2021/08/06 01:54:29;;;;;;;1.37;0.40;;;;;;;19.15;77.67;98291.20;1742263;79;21551;-57
2021/08/06 01:56:56;;;;;;;1.85;0.30;;;;;;;19.14;77.84;98330.41;1752781;80;21499;-55
2021/08/06 01:59:28;;;;;;;0.53;0.35;;;;;;;19.13;77.95;98391.95;1745813;79;20942;-54
2021/08/06 02:01:56;;;;;;;1.10;0.30;;;;;;;19.12;78.06;98390.24;1730326;80;21097;-56
2021/08/06 02:04:24;;;;;;;0.40;0.30;;;;;;;19.12;78.17;98376.60;1728649;80;21073;-54
2021/08/06 02:06:52;;;;;;;3.20;0.30;;;;;;;19.12;78.13;98356.15;1746507;79;21097;-55
2021/08/06 02:09:21;;;;;;;0.60;0.23;;;;;;;19.13;78.24;98365.54;1748663;79;20923;-56
2021/08/06 02:11:49;;;;;;;1.82;0.35;;;;;;;19.15;78.28;98367.58;1748843;79;20950;-55
2021/08/06 02:14:17;;;;;;;0.47;0.30;;;;;;;19.16;78.30;98382.06;1714276;81;20937;-55
2021/08/06 02:16:47;;;;;;;0.57;0.30;;;;;;;19.18;78.30;98386.86;1701730;81;21347;-56
2021/08/06 02:19:14;;;;;;;0.50;0.23;;;;;;;19.19;78.39;98380.39;1683085;81;22001;-55
2021/08/06 02:21:43;;;;;;;0.62;0.30;;;;;;;19.20;78.34;98377.52;1746314;79;20935;-55
2021/08/06 02:24:13;;;;;;;0.30;0.20;;;;;;;19.22;78.29;98380.91;1731142;81;20873;-55
2021/08/06 02:26:42;;;;;;;2.98;0.40;;;;;;;19.24;78.28;98373.93;1727920;80;21503;-55
2021/08/06 02:29:13;;;;;;;0.40;0.35;;;;;;;19.25;78.04;98372.92;1743835;79;20872;-56
2021/08/06 02:31:42;;;;;;;0.70;0.40;;;;;;;19.24;78.08;98363.02;1748808;79;21090;-55
2021/08/06 02:34:10;;;;;;;0.57;0.30;;;;;;;19.24;78.02;98354.33;1728667;79;21586;-56
2021/08/06 02:36:36;;;;;;;0.95;0.40;;;;;;;19.24;77.96;98339.33;1748912;79;21551;-55
2021/08/06 02:39:13;;;;;;;1.82;0.30;;;;;;;19.24;77.86;98323.47;1751754;79;22652;-55
2021/08/06 02:41:41;;;;;;;1.05;0.60;;;;;;;19.23;77.78;98314.42;1757235;79;20872;-55
2021/08/06 02:44:10;;;;;;;0.40;0.30;;;;;;;19.24;77.77;98316.14;1754994;79;21930;-55
2021/08/06 02:46:36;;;;;;;0.50;0.30;;;;;;;19.26;77.75;98323.66;1694085;82;20952;-55
2021/08/06 02:49:03;;;;;;;2.15;0.30;;;;;;;19.29;77.70;98314.30;1752853;79;21304;-56
2021/08/06 02:51:30;;;;;;;1.85;0.40;;;;;;;19.31;77.61;98310.05;1755045;79;21022;-54
2021/08/06 02:53:57;;;;;;;0.50;0.30;;;;;;;19.33;77.49;98298.44;1754669;79;20958;-55
2021/08/06 02:56:24;;;;;;;0.40;0.30;;;;;;;19.36;77.41;98306.31;1748719;79;21739;-55
2021/08/06 02:58:52;;;;;;;1.15;0.40;;;;;;;19.39;77.37;98308.72;1753118;79;21280;-56
2021/08/06 03:01:18;;;;;;;1.50;0.40;;;;;;;19.39;77.14;98297.30;1736222;80;21462;-54
2021/08/06 03:03:45;;;;;;;0.70;0.40;;;;;;;19.40;77.09;98292.67;1752224;79;20887;-55
2021/08/06 03:06:11;;;;;;;1.42;0.30;;;;;;;19.41;77.02;98283.47;1745533;79;21121;-56
2021/08/06 03:08:38;;;;;;;0.90;0.50;;;;;;;19.42;76.98;98275.62;1734184;80;21060;-56
2021/08/06 03:11:05;;;;;;;2.12;0.47;;;;;;;19.41;77.00;98276.14;1747277;79;21049;-56
2021/08/06 03:13:34;;;;;;;2.45;0.28;;;;;;;19.42;76.97;98296.09;1691631;82;21002;-56
2021/08/06 03:16:00;;;;;;;1.35;0.40;;;;;;;19.43;76.90;98287.75;1750146;79;21100;-56
2021/08/06 03:18:27;;;;;;;4.15;0.40;;;;;;;19.44;76.96;98297.65;1745368;79;21750;-55
2021/08/06 03:20:55;;;;;;;2.05;0.40;;;;;;;19.47;77.09;98283.72;1749983;79;21998;-56
2021/08/06 03:23:22;;;;;;;1.70;0.40;;;;;;;19.51;77.10;98266.48;1752833;79;21113;-55
2021/08/06 03:25:49;;;;;;;1.02;0.40;;;;;;;19.53;77.02;98270.77;1746663;79;21080;-56
2021/08/06 03:28:16;;;;;;;1.92;0.55;;;;;;;19.55;77.03;98281.52;1749028;79;21038;-56
2021/08/06 03:30:42;;;;;;;1.15;0.33;;;;;;;19.53;77.02;98278.95;1736746;79;21163;-55
2021/08/06 03:33:10;;;;;;;0.47;0.35;;;;;;;19.56;77.14;98291.42;1754619;79;21333;-55
2021/08/06 03:35:36;;;;;;;2.35;0.40;;;;;;;19.61;77.06;98283.58;1756695;79;21474;-56
2021/08/06 03:38:19;;;;;;;2.22;0.40;;;;;;;19.63;77.04;98289.73;1758317;79;21112;-55
2021/08/06 03:40:45;;;;;;;2.20;0.98;;;;;;;19.65;77.05;98288.52;1756401;79;21645;-56
2021/08/06 03:43:13;;;;;;;3.55;0.50;;;;;;;19.68;76.92;98289.22;1752958;79;20980;-55
2021/08/06 03:45:40;;;;;;;3.92;0.40;;;;;;;19.71;76.84;98290.27;1755822;79;22317;-55
2021/08/06 03:48:06;;;;;;;0.80;0.40;;;;;;;19.74;76.85;98285.81;1755179;79;21518;-56
2021/08/06 03:50:33;;;;;;;0.42;0.40;;;;;;;19.75;76.85;98282.92;1753400;79;21074;-55
2021/08/06 03:53:00;;;;;;;4.72;0.72;;;;;;;19.77;76.92;98281.39;1751936;79;21065;-55
2021/08/06 03:55:26;;;;;;;0.75;0.45;;;;;;;19.79;76.91;98294.37;1754996;79;21148;-54
2021/08/06 03:57:54;;;;;;;2.30;0.40;;;;;;;19.81;76.93;98302.75;1761018;79;21423;-54
2021/08/06 04:00:22;;;;;;;1.35;0.53;;;;;;;19.84;76.90;98305.12;1758147;79;21128;-55
2021/08/06 04:02:48;;;;;;;1.52;0.40;;;;;;;19.87;76.78;98291.16;1756253;79;21103;-55
2021/08/06 04:05:15;;;;;;;0.68;0.40;;;;;;;19.91;76.68;98291.65;1756574;79;21081;-56
2021/08/06 04:07:44;;;;;;;1.72;0.50;;;;;;;19.96;76.83;98309.77;1759727;79;21638;-55
2021/08/06 04:10:15;;;;;;;0.78;0.40;;;;;;;20.01;76.71;98313.70;1757857;79;21822;-56
2021/08/06 04:12:42;;;;;;;2.58;0.40;;;;;;;20.07;76.84;98310.83;1762762;79;20968;-55
2021/08/06 04:15:10;;;;;;;0.93;0.50;;;;;;;20.15;76.58;98309.98;1762941;79;21036;-55
2021/08/06 04:17:36;;;;;;;1.17;0.40;;;;;;;20.21;76.38;98314.25;1758836;79;21026;-56
2021/08/06 04:20:06;;;;;;;1.65;0.50;;;;;;;20.28;76.17;98308.44;1760954;79;21046;-56
2021/08/06 04:22:33;;;;;;;1.00;0.70;;;;;;;20.36;76.08;98300.27;1755391;79;21093;-56
2021/08/06 04:24:59;;;;;;;1.62;0.75;;;;;;;20.47;75.95;98305.06;1756725;79;21048;-56
2021/08/06 04:27:26;;;;;;;2.40;0.30;;;;;;;20.58;75.69;98311.56;1755307;79;21578;-56
2021/08/06 04:29:52;;;;;;;1.65;0.40;;;;;;;20.68;75.35;98306.73;1755427;79;21629;-56
2021/08/06 04:32:19;;;;;;;1.60;0.62;;;;;;;20.77;75.04;98310.66;1753572;79;21499;-56
2021/08/06 04:34:45;;;;;;;2.77;0.33;;;;;;;20.86;74.52;98320.22;1753109;79;21120;-56
2021/08/06 04:37:13;;;;;;;0.90;0.42;;;;;;;20.93;74.28;98322.08;1749024;79;21460;-56
2021/08/06 04:39:40;;;;;;;1.98;0.50;;;;;;;21.00;74.10;98323.13;1744063;79;21030;-55
2021/08/06 04:42:07;;;;;;;0.90;0.50;;;;;;;21.03;73.62;98328.22;1751049;79;21066;-56
2021/08/06 04:44:36;;;;;;;0.85;0.40;;;;;;;21.07;73.35;98321.91;1743498;79;21096;-55
2021/08/06 04:47:03;;;;;;;2.62;0.40;;;;;;;21.07;73.03;98328.23;1745866;79;21000;-56
2021/08/06 04:49:30;;;;;;;4.37;1.10;;;;;;;21.10;72.78;98327.01;1745551;79;21089;-55
2021/08/06 04:51:56;;;;;;;1.62;0.50;;;;;;;21.15;73.24;98319.14;1749662;79;21065;-55
2021/08/06 04:54:22;;;;;;;1.05;0.40;;;;;;;21.20;73.53;98320.01;1746251;79;22362;-56
2021/08/06 04:56:49;;;;;;;1.52;0.40;;;;;;;21.28;74.00;98318.09;1748220;79;21704;-55
2021/08/06 04:59:15;;;;;;;1.50;0.47;;;;;;;21.37;73.90;98325.25;1751567;79;21490;-55
2021/08/06 05:01:44;;;;;;;1.52;0.50;;;;;;;21.43;73.54;98330.05;1748250;79;21097;-55
2021/08/06 05:04:10;;;;;;;3.80;0.45;;;;;;;21.52;73.36;98333.60;1747828;79;21042;-56
2021/08/06 05:06:36;;;;;;;0.60;0.40;;;;;;;21.61;73.61;98343.46;1748173;79;21129;-56
2021/08/06 05:09:04;;;;;;;1.20;0.40;;;;;;;21.68;73.46;98340.37;1752138;79;20899;-56
2021/08/06 05:11:31;;;;;;;3.33;0.50;;;;;;;21.75;73.51;98340.00;1751827;79;21164;-56
2021/08/06 05:13:58;;;;;;;0.53;0.40;;;;;;;21.83;73.19;98346.80;1751210;79;20930;-56
2021/08/06 05:16:26;;;;;;;0.62;0.40;;;;;;;21.90;73.13;98352.41;1752078;79;20978;-55
2021/08/06 05:18:55;;;;;;;3.10;0.40;;;;;;;21.94;72.87;98364.73;1754603;79;20942;-56
2021/08/06 05:21:21;;;;;;;2.15;0.50;;;;;;;21.98;72.26;98372.94;1754264;79;20969;-56
2021/08/06 05:23:47;;;;;;;1.00;0.40;;;;;;;22.01;72.21;98385.44;1748680;79;21775;-56
2021/08/06 05:26:15;;;;;;;3.00;0.45;;;;;;;22.01;71.53;98386.81;1748647;80;20966;-57
2021/08/06 05:28:43;;;;;;;1.37;0.40;;;;;;;22.01;71.39;98384.07;1732746;79;20950;-58
2021/08/06 05:31:09;;;;;;;3.58;0.40;;;;;;;22.03;71.17;98389.69;1754579;79;21097;-57
2021/08/06 05:33:36;;;;;;;1.17;0.40;;;;;;;22.04;70.94;98387.80;1746637;79;21272;-55
2021/08/06 05:36:02;;;;;;;0.68;0.40;;;;;;;22.07;70.97;98388.31;1753272;79;21588;-55
2021/08/06 05:38:29;;;;;;;3.37;0.80;;;;;;;22.10;70.49;98380.25;1746069;79;21108;-57
2021/08/06 05:40:55;;;;;;;1.10;0.37;;;;;;;22.13;70.47;98393.06;1736780;80;21061;-58
2021/08/06 05:43:21;;;;;;;0.88;0.50;;;;;;;22.17;70.17;98394.42;1749559;79;21045;-57
2021/08/06 05:45:48;;;;;;;0.60;0.40;;;;;;;22.23;70.43;98380.50;1747366;80;21411;-58
2021/08/06 05:48:17;;;;;;;2.05;0.50;;;;;;;22.30;70.54;98391.08;1746809;79;22283;-56
2021/08/06 05:50:45;;;;;;;1.12;0.40;;;;;;;22.38;70.34;98400.62;1695584;82;21085;-57
2021/08/06 05:53:13;;;;;;;1.40;0.40;;;;;;;22.45;70.07;98393.40;1708964;82;21128;-57
2021/08/06 05:55:41;;;;;;;0.72;0.40;;;;;;;22.52;69.28;98398.48;1714561;81;22064;-57
2021/08/06 05:58:09;;;;;;;0.50;0.30;;;;;;;22.55;69.30;98395.36;1720178;82;21015;-57
2021/08/06 06:00:36;;;;;;;2.77;0.50;;;;;;;22.58;69.22;98401.01;1714673;82;21421;-57
2021/08/06 06:03:10;;;;;;;0.53;0.40;;;;;;;22.60;68.91;98401.69;1757181;79;21132;-57
2021/08/06 06:05:38;;;;;;;0.42;0.40;;;;;;;22.60;68.59;98404.42;1753360;79;21061;-58
2021/08/06 06:08:05;;;;;;;0.90;0.35;;;;;;;22.58;68.36;98404.60;1759093;79;21157;-57
2021/08/06 06:10:32;;;;;;;0.50;0.40;;;;;;;22.57;67.80;98408.89;1756572;79;21057;-58
2021/08/06 06:12:59;;;;;;;1.17;0.50;;;;;;;22.55;67.71;98409.59;1729785;80;22173;-59
2021/08/06 06:15:26;;;;;;;3.42;0.53;;;;;;;22.54;67.68;98403.80;1749133;79;21027;-57
2021/08/06 06:17:53;;;;;;;0.95;0.40;;;;;;;22.54;67.74;98409.28;1750060;79;20987;-58
2021/08/06 06:20:19;;;;;;;0.85;0.78;;;;;;;22.53;67.84;98407.56;1728801;80;20986;-58
2021/08/06 06:22:46;;;;;;;0.55;0.40;;;;;;;22.52;67.88;98398.48;1689909;83;21670;-58
2021/08/06 06:25:13;;;;;;;2.67;0.40;;;;;;;22.53;68.12;98403.45;1749238;79;21106;-57
2021/08/06 06:27:58;;;;;;;0.50;0.30;;;;;;;22.55;68.10;98402.73;1748660;79;20902;-57
2021/08/06 06:30:28;;;;;;;1.20;0.40;;;;;;;22.57;67.96;98407.00;1755517;79;21237;-57
2021/08/06 06:32:55;;;;;;;0.98;0.40;;;;;;;22.60;67.66;98406.66;1730719;79;21259;-57
2021/08/06 06:35:23;;;;;;;0.80;0.50;;;;;;;22.62;67.80;98407.33;1755469;79;21172;-57
2021/08/06 06:37:50;;;;;;;1.62;0.60;;;;;;;22.63;67.59;98406.27;1758427;79;21400;-57
2021/08/06 06:40:17;;;;;;;0.70;0.50;;;;;;;22.64;67.71;98402.48;1761824;79;21021;-57
2021/08/06 06:42:45;;;;;;;0.88;0.50;;;;;;;22.63;67.15;98408.16;1754049;79;21665;-57
2021/08/06 06:45:12;;;;;;;1.20;0.50;;;;;;;22.61;67.09;98400.66;1758104;79;21405;-58
2021/08/06 06:47:41;;;;;;;1.95;0.50;;;;;;;22.59;67.11;98400.83;1755858;79;21491;-56
2021/08/06 06:50:13;;;;;;;2.27;0.50;;;;;;;22.59;67.15;98404.94;1762025;79;21057;-57
2021/08/06 06:52:41;;;;;;;2.22;0.50;;;;;;;22.61;67.21;98410.25;1755815;79;21693;-56
2021/08/06 06:55:09;;;;;;;0.45;0.30;;;;;;;22.64;67.48;98412.61;1755235;79;21477;-57
2021/08/06 06:57:49;;;;;;;0.60;0.50;;;;;;;22.68;67.43;98408.48;1758200;79;21390;-56
2021/08/06 07:00:16;;;;;;;3.77;0.75;;;;;;;22.70;67.52;98406.93;1753627;79;21128;-57
2021/08/06 07:02:42;;;;;;;2.27;0.40;;;;;;;22.71;67.22;98408.13;1755675;79;21526;-56
2021/08/06 07:05:10;;;;;;;0.60;0.47;;;;;;;22.72;67.10;98402.95;1752028;79;21035;-58
2021/08/06 07:07:38;;;;;;;2.17;0.50;;;;;;;22.73;67.14;98396.94;1707747;81;21606;-57
2021/08/06 07:10:08;;;;;;;2.70;0.50;;;;;;;22.76;67.39;98400.73;1707757;82;21103;-57
2021/08/06 07:12:37;;;;;;;0.80;0.50;;;;;;;22.78;67.48;98381.69;1693144;82;20996;-57
2021/08/06 07:15:06;;;;;;;1.17;0.40;;;;;;;22.81;67.43;98389.53;1719628;80;21609;-57
2021/08/06 07:17:32;;;;;;;1.92;0.60;;;;;;;22.84;67.31;98389.17;1694266;82;21185;-57
2021/08/06 07:19:59;;;;;;;0.60;0.50;;;;;;;22.84;67.18;98389.17;1721201;80;21166;-57
2021/08/06 07:22:26;;;;;;;1.92;0.65;;;;;;;22.82;66.82;98390.39;1692302;82;21733;-58
2021/08/06 07:24:53;;;;;;;2.02;0.60;;;;;;;22.77;67.09;98388.73;1709442;81;21046;-57
2021/08/06 07:27:20;;;;;;;1.10;0.45;;;;;;;22.75;67.15;98397.66;1708359;82;21136;-58
2021/08/06 07:29:47;;;;;;;2.20;0.82;;;;;;;22.73;67.07;98399.17;1704979;82;21052;-58
2021/08/06 07:32:14;;;;;;;1.50;0.60;;;;;;;22.68;67.06;98408.99;1696864;82;20968;-58
2021/08/06 07:34:41;;;;;;;1.47;0.57;;;;;;;22.63;67.18;98413.13;1724341;80;21485;-58
2021/08/06 07:37:07;;;;;;;0.65;0.50;;;;;;;22.60;67.47;98410.77;1722887;81;21977;-57
2021/08/06 07:39:34;;;;;;;0.78;0.50;;;;;;;22.58;67.84;98416.09;1697130;82;21142;-58
2021/08/06 07:42:00;;;;;;;0.82;0.50;;;;;;;22.59;68.18;98429.63;1704798;83;21123;-57
2021/08/06 07:44:27;;;;;;;1.07;0.55;;;;;;;22.61;68.07;98431.67;1712038;82;21078;-58
2021/08/06 07:46:54;;;;;;;5.05;0.50;;;;;;;22.62;68.01;98435.27;1707684;82;21390;-58
2021/08/06 07:49:20;;;;;;;1.85;0.80;;;;;;;22.63;67.83;98428.20;1698495;82;21096;-58
2021/08/06 07:51:48;;;;;;;3.30;0.60;;;;;;;22.63;67.84;98425.46;1706007;82;22052;-58
2021/08/06 07:54:14;;;;;;;4.08;0.75;;;;;;;22.65;67.76;98433.52;1696434;82;21688;-58
2021/08/06 07:56:40;;;;;;;2.22;0.70;;;;;;;22.64;67.56;98412.61;1710885;82;21684;-59
2021/08/06 07:59:07;;;;;;;1.60;0.80;;;;;;;22.62;67.50;98418.30;1706902;81;22384;-57
2021/08/06 08:01:34;;;;;;;2.90;0.60;;;;;;;22.60;67.11;98427.22;1721371;82;21020;-58
2021/08/06 08:04:01;;;;;;;1.50;0.62;;;;;;;22.60;67.40;98435.45;1724895;82;21101;-57
2021/08/06 08:06:27;;;;;;;1.42;0.70;;;;;;;22.64;67.48;98429.06;1725226;82;21062;-58
2021/08/06 08:08:55;;;;;;;1.87;0.57;;;;;;;22.70;67.54;98446.70;1727821;82;21111;-57
2021/08/06 08:11:22;;;;;;;3.50;1.05;;;;;;;22.74;67.26;98448.03;1724382;82;21076;-59
2021/08/06 08:13:50;;;;;;;1.10;0.80;;;;;;;22.78;67.20;98450.79;1722797;80;21016;-58
2021/08/06 08:16:19;;;;;;;2.72;0.70;;;;;;;22.82;67.08;98408.22;1725999;82;21518;-58
2021/08/06 08:18:48;;;;;;;1.00;0.60;;;;;;;22.86;67.23;98425.52;1725234;82;20921;-57
2021/08/06 08:21:15;;;;;;;1.25;0.60;;;;;;;22.89;67.05;98410.55;1726816;82;21327;-58
2021/08/06 08:23:42;;;;;;;1.82;0.60;;;;;;;22.93;67.30;98407.80;1730409;80;20983;-58
2021/08/06 08:26:09;;;;;;;0.78;0.60;;;;;;;22.99;67.31;98412.02;1724976;82;20977;-58
2021/08/06 08:28:36;;;;;;;4.53;0.70;;;;;;;23.08;66.94;98412.80;1723135;82;21446;-58
2021/08/06 08:31:04;;;;;;;1.57;0.70;;;;;;;23.14;66.52;98412.05;1725780;82;21291;-58
2021/08/06 08:33:30;;;;;;;1.47;0.62;;;;;;;23.21;65.84;98423.16;1726990;82;20877;-58
2021/08/06 08:36:00;;;;;;;1.10;0.60;;;;;;;23.23;65.57;98427.41;1720021;81;20933;-57
2021/08/06 08:39:01;;;;;;;1.20;0.60;;;;;;;23.24;65.46;98421.39;1753553;79;20911;-59
2021/08/06 08:41:30;;;;;;;1.17;0.62;;;;;;;23.22;65.12;98407.84;1751592;79;21680;-57
2021/08/06 08:43:59;;;;;;;2.15;0.53;;;;;;;23.21;64.95;98414.41;1758278;79;21403;-57
2021/08/06 08:46:27;;;;;;;3.45;0.80;;;;;;;23.22;64.95;98421.57;1753999;79;21361;-58
2021/08/06 08:48:59;;;;;;;1.35;0.68;;;;;;;23.23;64.92;98412.30;1737373;79;21070;-58
2021/08/06 08:51:28;;;;;;;1.52;0.68;;;;;;;23.24;64.54;98412.64;1755848;79;21499;-58
2021/08/06 08:53:56;;;;;;;1.00;0.60;;;;;;;23.24;64.55;98418.65;1756631;79;22216;-58
2021/08/06 08:56:23;;;;;;;2.45;0.78;;;;;;;23.25;64.37;98416.23;1756111;79;20978;-58
2021/08/06 08:58:51;;;;;;;0.70;0.50;;;;;;;23.28;64.89;98417.25;1757185;79;21117;-57
2021/08/06 09:01:18;;;;;;;3.02;0.80;;;;;;;23.32;65.07;98413.94;1753689;79;21057;-58
2021/08/06 09:03:48;;;;;;;0.90;0.60;;;;;;;23.39;65.00;98426.42;1750599;79;21088;-58
2021/08/06 09:06:42;;;;;;;2.30;0.50;;;;;;;23.47;65.29;98429.59;1749803;79;21479;-58
2021/08/06 09:09:22;;;;;;;1.27;0.50;;;;;;;23.58;64.92;98424.50;1757671;79;21486;-58
2021/08/06 09:12:08;;;;;;;1.52;0.60;;;;;;;23.72;65.13;98423.68;1679257;83;21133;-59
2021/08/06 09:14:48;;;;;;;2.50;0.60;;;;;;;23.87;64.58;98424.19;1729520;79;21061;-58
2021/08/06 09:17:15;;;;;;;3.08;0.53;;;;;;;24.00;64.40;98439.47;1755485;79;21144;-58
2021/08/06 09:19:55;;;;;;;2.45;0.70;;;;;;;24.09;64.10;98443.30;1751502;79;21113;-60
2021/08/06 09:22:26;;;;;;;2.45;0.60;;;;;;;24.17;63.44;98442.86;1755686;79;21732;-59
2021/08/06 09:25:06;;;;;;;2.42;0.60;;;;;;;24.21;63.11;98431.86;1753626;79;21077;-58
2021/08/06 09:27:48;;;;;;;1.40;0.70;;;;;;;24.25;63.21;98429.04;1754166;79;21406;-59
2021/08/06 09:30:33;;;;;;;0.82;0.57;;;;;;;24.29;62.74;98429.00;1756400;79;21051;-58
2021/08/06 09:32:59;;;;;;;2.90;0.65;;;;;;;24.32;62.73;98420.38;1754695;79;21065;-59
2021/08/06 09:35:31;;;;;;;1.30;0.70;;;;;;;24.38;62.68;98419.59;1755901;79;21125;-58
2021/08/06 09:37:57;;;;;;;2.17;0.70;;;;;;;24.41;62.22;98415.09;1752557;80;21374;-58
2021/08/06 09:40:27;;;;;;;2.55;0.72;;;;;;;24.45;62.39;98414.49;1755406;79;21511;-59
2021/08/06 09:43:03;;;;;;;1.12;0.78;;;;;;;24.51;61.84;98401.33;1755409;79;20964;-58
2021/08/06 09:45:40;;;;;;;2.85;0.70;;;;;;;24.57;61.67;98393.36;1698588;82;21078;-59
2021/08/06 09:48:10;;;;;;;2.58;0.70;;;;;;;24.64;61.85;98390.15;1754125;79;21101;-58
2021/08/06 09:50:43;;;;;;;1.37;0.98;;;;;;;24.67;61.44;98379.59;1755105;79;21511;-59
2021/08/06 09:53:11;;;;;;;1.60;0.70;;;;;;;24.72;61.76;98375.74;1750631;79;21136;-60
2021/08/06 09:55:40;;;;;;;0.80;0.55;;;;;;;24.79;61.38;98373.05;1752656;79;21042;-59
2021/08/06 09:58:20;;;;;;;1.00;0.62;;;;;;;24.85;61.20;98356.59;1751488;79;21084;-59
2021/08/06 10:00:50;;;;;;;5.87;0.70;;;;;;;24.89;61.06;98354.30;1756441;79;21323;-58
2021/08/06 10:03:37;;;;;;;3.02;0.65;;;;;;;24.97;61.21;98351.95;1756468;79;21050;-58
2021/08/06 10:06:16;;;;;;;3.22;0.70;;;;;;;25.04;60.30;98354.23;1734109;80;21045;-58
2021/08/06 10:08:43;;;;;;;1.57;0.80;;;;;;;25.12;59.75;98360.97;1756980;79;21121;-57
2021/08/06 10:11:11;;;;;;;1.75;0.70;;;;;;;25.17;59.40;98346.09;1755225;79;21102;-58
2021/08/06 10:13:40;;;;;;;1.10;0.70;;;;;;;25.25;59.53;98345.94;1749062;79;21634;-59
2021/08/06 10:16:07;;;;;;;1.40;0.70;;;;;;;25.33;59.25;98340.80;1756018;79;21467;-60
2021/08/06 10:18:34;;;;;;;2.22;0.80;;;;;;;25.39;59.06;98343.59;1754802;79;21355;-59
2021/08/06 10:21:01;;;;;;;0.95;0.70;;;;;;;25.48;58.25;98341.53;1757538;79;21010;-57
2021/08/06 10:23:28;;;;;;;5.12;0.80;;;;;;;25.55;58.91;98339.66;1752955;79;21200;-59
2021/08/06 10:25:54;;;;;;;2.35;0.80;;;;;;;25.58;58.06;98336.51;1751695;79;21034;-58
2021/08/06 10:28:21;;;;;;;2.17;1.00;;;;;;;25.63;58.04;98322.98;1752633;79;21069;-58
2021/08/06 10:30:48;;;;;;;3.40;0.90;;;;;;;25.63;57.85;98318.86;1752696;80;21156;-58
2021/08/06 10:33:28;;;;;;;3.45;0.80;;;;;;;25.65;58.20;98315.91;1756540;79;21796;-59
2021/08/06 10:36:04;;;;;;;4.50;0.80;;;;;;;25.67;57.82;98313.27;1752861;79;21053;-58
2021/08/06 10:38:43;;;;;;;1.60;0.80;;;;;;;25.69;57.23;98310.32;1751217;79;20938;-59
2021/08/06 10:41:15;;;;;;;2.22;0.70;;;;;;;25.71;56.88;98308.19;1754071;79;21507;-59
2021/08/06 10:44:05;;;;;;;1.90;1.02;;;;;;;25.69;56.89;98329.61;1756655;80;21400;-60
2021/08/06 10:47:00;;;;;;;1.02;0.80;;;;;;;25.66;57.01;98338.27;1762623;79;21369;-57
2021/08/06 10:49:28;;;;;;;1.22;0.80;;;;;;;25.61;57.20;98336.97;1754327;79;21072;-59
2021/08/06 10:52:15;;;;;;;1.22;0.95;;;;;;;25.61;57.24;98342.48;1759773;80;20894;-58
2021/08/06 10:54:42;;;;;;;1.50;0.75;;;;;;;25.61;57.05;98348.52;1754345;79;20954;-57
2021/08/06 10:57:19;;;;;;;1.55;0.80;;;;;;;25.58;57.10;98335.12;1755764;79;20961;-60
2021/08/06 10:59:46;;;;;;;4.45;1.00;;;;;;;25.56;57.69;98328.44;1753145;79;21376;-59
2021/08/06 11:02:40;;;;;;;5.00;0.98;;;;;;;25.60;57.82;98329.75;1756077;79;21705;-59
2021/08/06 11:05:36;;;;;;;2.47;0.90;;;;;;;25.65;58.29;98337.42;1755604;79;20969;-57
2021/08/06 11:08:24;;;;;;;2.35;1.00;;;;;;;25.69;57.84;98357.17;1675913;83;20907;-59
2021/08/06 11:10:51;;;;;;;3.85;1.00;;;;;;;25.68;57.92;98365.11;1644502;85;21749;-59
2021/08/06 11:13:35;;;;;;;1.17;0.80;;;;;;;25.69;58.15;98364.06;1718041;79;21038;-59
2021/08/06 11:16:09;;;;;;;;;;;;;;;25.64;58.12;98356.38;1748301;79;21069;-60
2021/08/06 11:18:45;;;;;;;2.65;0.80;;;;;;;25.59;58.26;98366.65;1754254;79;20581;-60
2021/08/06 11:21:12;;;;;;;2.02;0.82;;;;;;;25.53;58.35;98366.03;1750179;80;21062;-58
2021/08/06 11:23:39;;;;;;;4.33;0.90;;;;;;;25.46;57.72;98369.80;1760100;79;21069;-58
2021/08/06 11:26:11;;;;;;;1.55;0.80;;;;;;;25.39;57.83;98357.36;1752936;80;21828;-58
2021/08/06 11:28:39;;;;;;;1.40;1.00;;;;;;;25.36;57.95;98365.16;1760212;79;21184;-59
2021/08/06 11:31:18;;;;;;;2.62;0.90;;;;;;;25.33;57.90;98362.31;1752815;80;21486;-58
2021/08/06 11:33:45;;;;;;;1.70;0.80;;;;;;;25.32;58.02;98358.38;1753723;79;21074;-61
2021/08/06 11:36:17;;;;;;;2.62;1.10;;;;;;;25.34;58.57;98353.52;1738770;79;21031;-58
2021/08/06 11:38:44;;;;;;;1.67;0.78;;;;;;;25.37;58.42;98359.98;1757865;79;21057;-57
2021/08/06 11:41:10;;;;;;;1.55;0.72;;;;;;;25.41;58.25;98363.53;1756937;79;21662;-59
2021/08/06 11:43:38;;;;;;;1.98;0.70;;;;;;;25.41;58.39;98355.27;1762658;79;21125;-58
2021/08/06 11:46:13;;;;;;;2.42;0.80;;;;;;;25.44;58.46;98365.86;1758699;79;21049;-60